createdAt,value
2018-01-25T00:00:55.138Z,12.70
2018-01-25T00:03:23.470Z,12.70
2018-01-25T00:05:52.463Z,12.70
2018-01-25T00:08:20.734Z,12.60
2018-01-25T00:10:48.937Z,12.70
2018-01-25T00:16:14.329Z,12.70
2018-01-25T00:18:43.551Z,12.60
2018-01-25T00:21:11.825Z,12.60
2018-01-25T00:23:40.075Z,12.60
2018-01-25T00:26:08.454Z,12.50
2018-01-25T00:28:36.682Z,12.50
2018-01-25T00:31:05.008Z,12.50
2018-01-25T00:33:33.294Z,12.50
2018-01-25T00:36:01.816Z,12.50
2018-01-25T00:38:30.758Z,12.50
2018-01-25T00:40:59.112Z,12.50
2018-01-25T00:43:27.680Z,12.60
2018-01-25T00:45:56.034Z,12.60
2018-01-25T00:48:24.261Z,12.60
2018-01-25T00:50:53.283Z,12.60
2018-01-25T00:53:21.579Z,12.60
2018-01-25T00:55:49.857Z,12.60
2018-01-25T00:58:18.168Z,12.60
2018-01-25T01:00:46.499Z,12.70
2018-01-25T01:03:14.791Z,12.70
2018-01-25T01:05:49.138Z,12.70
2018-01-25T01:08:18.236Z,12.70
2018-01-25T01:10:46.491Z,12.70
2018-01-25T01:13:14.760Z,12.70
2018-01-25T01:15:43.062Z,12.80
2018-01-25T01:18:11.355Z,12.80
2018-01-25T01:20:40.487Z,12.80
2018-01-25T01:23:08.732Z,12.70
2018-01-25T01:25:37.756Z,12.80
2018-01-25T01:28:06.001Z,12.70
2018-01-25T01:30:35.051Z,12.80
2018-01-25T01:33:03.308Z,12.70
2018-01-25T01:35:31.545Z,12.80
2018-01-25T01:38:00.603Z,12.80
2018-01-25T01:40:28.860Z,12.80
2018-01-25T01:42:57.107Z,12.90
2018-01-25T01:45:25.376Z,12.80
2018-01-25T01:47:53.612Z,12.80
2018-01-25T01:50:22.714Z,12.80
2018-01-25T01:52:50.948Z,12.80
2018-01-25T01:55:19.188Z,12.80
2018-01-25T01:57:47.471Z,12.80
2018-01-25T02:00:15.744Z,12.80
2018-01-25T02:02:44.735Z,12.80
2018-01-25T02:05:12.980Z,12.70
2018-01-25T02:07:41.251Z,12.80
2018-01-25T02:10:09.516Z,12.70
2018-01-25T02:12:37.820Z,12.70
2018-01-25T02:15:06.859Z,12.80
2018-01-25T02:17:35.096Z,12.70
2018-01-25T02:20:04.111Z,12.70
2018-01-25T02:22:32.470Z,12.70
2018-01-25T02:25:00.692Z,12.70
2018-01-25T02:27:28.960Z,12.70
2018-01-25T02:29:57.251Z,12.70
2018-01-25T02:32:25.492Z,12.70
2018-01-25T02:34:53.804Z,12.80
2018-01-25T02:37:23.148Z,12.80
2018-01-25T02:39:52.171Z,12.80
2018-01-25T02:42:20.728Z,12.70
2018-01-25T02:44:48.999Z,12.80
2018-01-25T02:47:17.275Z,12.80
2018-01-25T02:49:45.539Z,12.80
2018-01-25T02:52:14.588Z,12.80
2018-01-25T02:54:42.840Z,12.70
2018-01-25T02:57:11.071Z,12.80
2018-01-25T02:59:40.111Z,12.80
2018-01-25T03:02:08.371Z,12.70
2018-01-25T03:04:36.651Z,12.80
2018-01-25T03:07:04.916Z,12.80
2018-01-25T03:09:33.164Z,12.80
2018-01-25T03:12:01.448Z,12.80
2018-01-25T03:14:29.688Z,12.80
2018-01-25T03:16:57.939Z,12.80
2018-01-25T03:19:26.271Z,12.80
2018-01-25T03:21:54.527Z,12.80
2018-01-25T03:24:22.839Z,12.70
2018-01-25T03:26:51.102Z,12.70
2018-01-25T03:29:19.368Z,12.70
2018-01-25T03:31:47.640Z,12.30
2018-01-25T03:34:15.976Z,11.70
2018-01-25T03:36:44.252Z,11.00
2018-01-25T03:39:12.495Z,10.60
2018-01-25T03:41:42.219Z,10.00
2018-01-25T03:44:10.479Z,10.00
2018-01-25T03:46:38.700Z,9.90
2018-01-25T03:49:06.943Z,9.80
2018-01-25T03:51:35.204Z,9.70
2018-01-25T03:54:04.208Z,9.70
2018-01-25T03:56:33.227Z,9.60
2018-01-25T03:59:01.597Z,9.60
2018-01-25T04:01:29.810Z,9.60
2018-01-25T04:03:58.028Z,9.60
2018-01-25T04:06:26.287Z,9.60
2018-01-25T04:08:55.292Z,9.60
2018-01-25T04:11:24.304Z,9.60
2018-01-25T04:13:52.609Z,9.50
2018-01-25T04:16:20.824Z,9.60
2018-01-25T04:18:49.844Z,9.60
2018-01-25T04:21:18.064Z,9.50
2018-01-25T04:23:46.292Z,9.60
2018-01-25T04:26:14.543Z,9.60
2018-01-25T04:28:43.534Z,9.60
2018-01-25T04:31:12.556Z,9.50
2018-01-25T04:33:40.784Z,9.50
2018-01-25T04:36:09.007Z,9.50
2018-01-25T04:38:37.259Z,9.50
2018-01-25T04:41:06.271Z,9.50
2018-01-25T04:43:34.515Z,9.40
2018-01-25T04:46:03.512Z,9.50
2018-01-25T04:48:31.744Z,9.50
2018-01-25T04:53:34.701Z,9.60
2018-01-25T04:56:02.925Z,9.60
2018-01-25T04:58:31.895Z,9.60
2018-01-25T05:01:00.130Z,9.70
2018-01-25T05:03:29.147Z,9.80
2018-01-25T05:05:57.381Z,9.70
2018-01-25T05:08:26.409Z,9.70
2018-01-25T05:10:54.680Z,9.70
2018-01-25T05:13:22.933Z,9.70
2018-01-25T05:15:51.189Z,9.60
2018-01-25T05:18:20.227Z,9.50
2018-01-25T05:20:48.471Z,9.50
2018-01-25T05:23:17.520Z,9.40
2018-01-25T05:25:45.764Z,9.30
2018-01-25T05:28:14.007Z,9.40
2018-01-25T05:30:43.324Z,9.40
2018-01-25T05:33:11.584Z,9.30
2018-01-25T05:35:39.844Z,9.40
2018-01-25T05:38:08.100Z,9.40
2018-01-25T05:40:36.376Z,9.40
2018-01-25T05:43:04.603Z,9.40
2018-01-25T05:45:32.832Z,9.30
2018-01-25T05:48:01.112Z,9.30
2018-01-25T05:50:29.380Z,9.30
2018-01-25T05:52:57.607Z,9.30
2018-01-25T05:55:25.848Z,9.30
2018-01-25T05:57:54.116Z,9.30
2018-01-25T06:00:22.392Z,9.30
2018-01-25T06:02:50.627Z,9.30
2018-01-25T06:05:18.908Z,9.40
2018-01-25T06:07:47.133Z,9.40
2018-01-25T06:10:15.389Z,9.40
2018-01-25T06:12:43.648Z,9.40
2018-01-25T06:15:11.884Z,9.40
2018-01-25T06:17:40.136Z,9.40
2018-01-25T06:20:09.150Z,9.50
2018-01-25T06:22:38.177Z,9.50
2018-01-25T06:25:06.444Z,9.40
2018-01-25T06:27:34.704Z,9.50
2018-01-25T06:30:03.713Z,9.60
2018-01-25T06:32:32.091Z,9.50
2018-01-25T06:35:00.346Z,9.60
2018-01-25T06:37:29.345Z,9.60
2018-01-25T06:39:57.749Z,9.60
2018-01-25T06:42:25.993Z,9.70
2018-01-25T06:44:54.252Z,9.70
2018-01-25T06:47:22.564Z,9.70
2018-01-25T06:49:50.828Z,9.80
2018-01-25T06:52:19.100Z,9.90
2018-01-25T06:54:48.120Z,9.90
2018-01-25T06:57:16.411Z,9.80
2018-01-25T06:59:44.730Z,9.90
2018-01-25T07:02:12.954Z,9.90
2018-01-25T07:04:41.188Z,9.80
2018-01-25T07:07:10.212Z,9.70
2018-01-25T07:09:38.484Z,9.70
2018-01-25T07:12:06.749Z,9.70
2018-01-25T07:14:35.004Z,9.60
2018-01-25T07:17:03.264Z,9.60
2018-01-25T07:19:32.299Z,9.50
2018-01-25T07:22:00.564Z,9.50
2018-01-25T07:24:28.801Z,9.50
2018-01-25T07:26:57.056Z,9.50
2018-01-25T07:29:25.348Z,9.50
2018-01-25T07:31:54.392Z,9.50
2018-01-25T07:34:22.639Z,9.50
2018-01-25T07:36:51.668Z,9.50
2018-01-25T07:39:19.968Z,9.50
2018-01-25T07:41:48.220Z,9.50
2018-01-25T07:44:16.496Z,9.50
2018-01-25T07:46:44.808Z,9.60
2018-01-25T07:49:13.084Z,9.50
2018-01-25T07:51:42.117Z,9.50
2018-01-25T07:54:10.348Z,9.60
2018-01-25T07:56:39.412Z,9.70
2018-01-25T07:59:07.660Z,9.60
2018-01-25T08:01:35.896Z,9.70
2018-01-25T08:04:04.153Z,9.90
2018-01-25T08:06:32.428Z,9.90
2018-01-25T08:09:00.694Z,9.90
2018-01-25T08:11:28.957Z,9.90
2018-01-25T08:13:57.196Z,9.90
2018-01-25T08:16:31.221Z,9.90
2018-01-25T08:18:59.584Z,9.90
2018-01-25T08:21:27.803Z,10.00
2018-01-25T08:23:56.084Z,10.00
2018-01-25T08:26:24.352Z,10.00
2018-01-25T08:28:52.628Z,9.90
2018-01-25T08:31:20.884Z,9.90
2018-01-25T08:33:49.132Z,9.90
2018-01-25T08:36:17.455Z,10.00
2018-01-25T08:38:45.706Z,10.00
2018-01-25T08:41:13.938Z,10.00
2018-01-25T08:43:42.239Z,10.10
2018-01-25T08:46:11.237Z,10.00
2018-01-25T08:48:39.557Z,10.00
2018-01-25T08:51:07.760Z,10.10
2018-01-25T08:53:36.780Z,10.20
2018-01-25T08:56:05.045Z,10.10
2018-01-25T08:58:34.044Z,10.10
2018-01-25T09:01:02.327Z,10.10
2018-01-25T09:03:31.324Z,10.00
2018-01-25T09:05:59.607Z,10.00
2018-01-25T09:08:27.871Z,10.10
2018-01-25T09:10:56.125Z,10.10
2018-01-25T09:13:24.409Z,10.20
2018-01-25T09:15:52.688Z,10.10
2018-01-25T09:18:20.974Z,10.20
2018-01-25T09:20:49.477Z,10.30
2018-01-25T09:23:17.737Z,10.40
2018-01-25T09:25:46.041Z,10.40
2018-01-25T09:28:15.844Z,10.50
2018-01-25T09:30:44.109Z,10.50
2018-01-25T09:33:12.401Z,10.60
2018-01-25T09:35:40.665Z,10.70
2018-01-25T09:38:08.963Z,10.80
2018-01-25T09:40:38.168Z,10.90
2018-01-25T09:43:07.209Z,10.90
2018-01-25T09:45:35.530Z,10.90
2018-01-25T09:48:03.823Z,10.90
2018-01-25T09:50:32.077Z,10.90
2018-01-25T09:53:00.385Z,10.90
2018-01-25T09:55:28.789Z,10.90
2018-01-25T09:57:57.053Z,11.00
2018-01-25T10:00:25.338Z,11.00
2018-01-25T10:02:53.609Z,11.10
2018-01-25T10:05:21.895Z,11.00
2018-01-25T10:07:50.177Z,11.10
2018-01-25T10:10:18.466Z,11.10
2018-01-25T10:12:46.740Z,11.20
2018-01-25T10:15:15.032Z,11.20
2018-01-25T10:17:43.397Z,11.30
2018-01-25T10:20:11.668Z,11.30
2018-01-25T10:22:39.959Z,11.30
2018-01-25T10:25:08.208Z,11.30
2018-01-25T10:27:36.504Z,11.40
2018-01-25T10:30:04.772Z,11.50
2018-01-25T10:32:33.081Z,11.60
2018-01-25T10:35:01.341Z,11.50
2018-01-25T10:37:30.631Z,11.60
2018-01-25T10:39:59.793Z,11.60
2018-01-25T10:42:28.095Z,11.70
2018-01-25T10:44:56.380Z,11.70
2018-01-25T10:47:24.657Z,11.80
2018-01-25T10:49:52.977Z,11.90
2018-01-25T10:52:21.231Z,12.00
2018-01-25T10:54:49.493Z,12.00
2018-01-25T10:57:17.812Z,12.00
2018-01-25T10:59:46.131Z,12.10
2018-01-25T11:02:14.388Z,12.10
2018-01-25T11:04:42.740Z,12.00
2018-01-25T11:07:11.005Z,11.90
2018-01-25T11:09:40.067Z,11.90
2018-01-25T11:12:08.329Z,11.80
2018-01-25T11:14:36.628Z,11.90
2018-01-25T11:17:04.912Z,11.90
2018-01-25T11:19:33.956Z,11.90
2018-01-25T11:22:02.249Z,11.90
2018-01-25T11:24:30.512Z,11.90
2018-01-25T11:26:58.808Z,11.90
2018-01-25T11:29:27.964Z,11.80
2018-01-25T11:31:56.239Z,11.80
2018-01-25T11:34:24.522Z,11.80
2018-01-25T11:36:52.809Z,11.80
2018-01-25T11:39:21.108Z,11.70
2018-01-25T11:41:49.375Z,11.60
2018-01-25T11:44:17.660Z,11.70
2018-01-25T11:46:45.919Z,11.80
2018-01-25T11:49:14.225Z,11.80
2018-01-25T11:51:42.477Z,11.80
2018-01-25T11:54:10.833Z,11.90
2018-01-25T11:56:39.129Z,11.80
2018-01-25T11:59:07.384Z,11.90
2018-01-25T12:01:35.700Z,11.90
2018-01-25T12:04:03.955Z,11.90
2018-01-25T12:06:32.225Z,11.90
2018-01-25T12:09:00.509Z,12.00
2018-01-25T12:11:28.776Z,12.00
2018-01-25T12:13:57.076Z,12.00
2018-01-25T12:16:25.353Z,12.00
2018-01-25T12:18:53.642Z,12.00
2018-01-25T12:21:22.696Z,12.00
2018-01-25T12:23:50.976Z,12.00
2018-01-25T12:26:19.271Z,12.00
2018-01-25T12:28:47.552Z,11.90
2018-01-25T12:31:15.812Z,12.00
2018-01-25T12:33:44.071Z,12.00
2018-01-25T12:36:12.360Z,12.00
2018-01-25T12:38:40.641Z,12.10
2018-01-25T12:41:08.924Z,12.00
2018-01-25T12:43:37.184Z,12.00
2018-01-25T12:46:05.478Z,12.00
2018-01-25T12:48:33.732Z,12.00
2018-01-25T12:51:02.004Z,12.00
2018-01-25T12:53:30.297Z,12.00
2018-01-25T12:55:58.534Z,12.00
2018-01-25T12:58:26.832Z,12.00
2018-01-25T13:00:55.112Z,12.00
2018-01-25T13:03:23.392Z,12.00
2018-01-25T13:05:51.689Z,11.90
2018-01-25T13:08:20.740Z,11.90
2018-01-25T13:10:49.034Z,11.90
2018-01-25T13:13:17.312Z,12.00
2018-01-25T13:15:45.622Z,12.00
2018-01-25T13:18:14.665Z,12.10
2018-01-25T13:20:42.962Z,12.00
2018-01-25T13:23:11.241Z,12.20
2018-01-25T13:25:39.581Z,12.20
2018-01-25T13:28:07.894Z,12.10
2018-01-25T13:30:36.164Z,12.10
2018-01-25T13:33:10.050Z,12.20
2018-01-25T13:35:39.068Z,12.30
2018-01-25T13:38:07.353Z,12.20
2018-01-25T13:40:35.588Z,12.30
2018-01-25T13:43:03.860Z,12.20
2018-01-25T13:45:32.153Z,12.10
2018-01-25T13:48:00.396Z,12.10
2018-01-25T13:50:29.445Z,12.00
2018-01-25T13:52:57.699Z,12.00
2018-01-25T13:55:26.000Z,12.00
2018-01-25T13:57:54.248Z,11.90
2018-01-25T14:00:22.498Z,11.90
2018-01-25T14:02:50.748Z,11.90
2018-01-25T14:05:19.016Z,11.80
2018-01-25T14:07:47.272Z,11.90
2018-01-25T14:10:15.522Z,11.90
2018-01-25T14:12:43.792Z,11.90
2018-01-25T14:15:12.040Z,11.90
2018-01-25T14:17:41.107Z,11.80
2018-01-25T14:20:09.372Z,11.80
2018-01-25T14:22:37.616Z,11.70
2018-01-25T14:25:05.885Z,11.70
2018-01-25T14:27:34.148Z,11.70
2018-01-25T14:30:03.168Z,11.70
2018-01-25T14:32:31.416Z,11.70
2018-01-25T14:35:00.440Z,11.70
2018-01-25T14:37:28.703Z,11.60
2018-01-25T14:39:56.964Z,11.60
2018-01-25T14:42:25.236Z,11.60
2018-01-25T14:44:54.236Z,11.50
2018-01-25T14:47:23.256Z,11.50
2018-01-25T14:49:51.504Z,11.40
2018-01-25T14:52:20.528Z,11.50
2018-01-25T14:54:48.760Z,11.40
2018-01-25T14:57:17.036Z,11.40
2018-01-25T14:59:45.352Z,11.40
2018-01-25T15:02:13.619Z,11.30
2018-01-25T15:04:41.892Z,11.30
2018-01-25T15:07:10.170Z,11.40
2018-01-25T15:09:38.529Z,11.40
2018-01-25T15:12:06.782Z,11.40
2018-01-25T15:14:35.064Z,11.40
2018-01-25T15:17:04.081Z,11.40
2018-01-25T15:19:32.356Z,11.40
2018-01-25T15:22:00.616Z,11.40
2018-01-25T15:24:29.639Z,11.40
2018-01-25T15:26:57.920Z,11.40
2018-01-25T15:29:26.198Z,11.40
2018-01-25T15:31:54.473Z,11.30
2018-01-25T15:34:22.731Z,11.30
2018-01-25T15:36:51.721Z,11.20
2018-01-25T15:39:20.004Z,11.20
2018-01-25T15:41:48.241Z,11.20
2018-01-25T15:44:16.473Z,11.20
2018-01-25T15:46:44.732Z,11.10
2018-01-25T15:49:13.029Z,11.10
2018-01-25T15:51:41.264Z,11.10
2018-01-25T15:54:10.336Z,11.00
2018-01-25T15:56:39.356Z,11.00
2018-01-25T15:59:08.367Z,11.00
2018-01-25T16:01:36.660Z,10.90
2018-01-25T16:04:04.941Z,11.00
2018-01-25T16:06:33.181Z,11.00
2018-01-25T16:09:01.448Z,10.90
2018-01-25T16:11:29.721Z,10.90
2018-01-25T16:13:57.991Z,10.90
2018-01-25T16:16:26.240Z,10.90
2018-01-25T16:18:54.483Z,10.90
2018-01-25T16:21:22.756Z,10.90
2018-01-25T16:23:51.005Z,10.90
2018-01-25T16:26:19.267Z,10.80
2018-01-25T16:28:47.515Z,10.80
2018-01-25T16:31:15.799Z,10.80
2018-01-25T16:33:44.069Z,10.80
2018-01-25T16:36:12.307Z,10.80
2018-01-25T16:38:40.580Z,10.80
2018-01-25T16:41:08.818Z,10.80
2018-01-25T16:43:37.844Z,10.70
2018-01-25T16:46:06.080Z,10.70
2018-01-25T16:48:35.084Z,10.60
2018-01-25T16:51:03.361Z,10.60
2018-01-25T16:53:31.616Z,10.60
2018-01-25T16:56:00.645Z,10.60
2018-01-25T16:58:28.934Z,10.60
2018-01-25T17:00:57.189Z,10.60
2018-01-25T17:03:25.420Z,10.60
2018-01-25T17:05:53.692Z,10.60
2018-01-25T17:08:22.719Z,10.50
2018-01-25T17:10:50.998Z,10.40
2018-01-25T17:13:20.000Z,10.50
2018-01-25T17:15:49.024Z,10.50
2018-01-25T17:18:17.280Z,10.40
2018-01-25T17:20:45.535Z,10.50
2018-01-25T17:23:13.799Z,10.50
2018-01-25T17:25:42.823Z,10.50
2018-01-25T17:28:11.088Z,10.50
2018-01-25T17:30:39.344Z,10.40
2018-01-25T17:33:08.336Z,10.40
2018-01-25T17:35:36.612Z,10.40
2018-01-25T17:38:04.869Z,10.40
2018-01-25T17:40:33.104Z,10.40
2018-01-25T17:43:01.348Z,10.40
2018-01-25T17:45:29.612Z,10.40
2018-01-25T17:47:58.612Z,10.50
2018-01-25T17:50:26.906Z,10.50
2018-01-25T17:52:55.184Z,10.40
2018-01-25T17:55:23.432Z,10.50
2018-01-25T17:57:51.717Z,10.50
2018-01-25T18:00:19.968Z,10.50
2018-01-25T18:02:48.220Z,10.50
2018-01-25T18:05:16.455Z,10.50
2018-01-25T18:07:44.750Z,10.50
2018-01-25T18:10:12.985Z,10.50
2018-01-25T18:12:41.285Z,10.50
2018-01-25T18:15:09.567Z,10.50
2018-01-25T18:17:38.525Z,10.40
2018-01-25T18:20:07.548Z,10.40
2018-01-25T18:22:36.581Z,10.40
2018-01-25T18:25:05.640Z,10.40
2018-01-25T18:27:33.929Z,10.30
2018-01-25T18:30:02.181Z,10.30
2018-01-25T18:32:31.203Z,10.30
2018-01-25T18:34:59.464Z,10.30
2018-01-25T18:37:27.740Z,10.30
2018-01-25T18:39:56.004Z,10.30
2018-01-25T18:42:24.261Z,10.20
2018-01-25T18:44:52.556Z,10.20
2018-01-25T18:47:20.812Z,10.10
2018-01-25T18:49:49.056Z,10.10
2018-01-25T18:52:17.336Z,10.10
2018-01-25T18:54:45.616Z,10.10
2018-01-25T18:57:13.948Z,10.10
2018-01-25T18:59:42.325Z,10.00
2018-01-25T19:02:10.579Z,10.00
2018-01-25T19:04:38.824Z,9.90
2018-01-25T19:07:07.857Z,10.00
2018-01-25T19:09:36.104Z,9.90
2018-01-25T19:12:05.129Z,10.00
2018-01-25T19:14:33.409Z,9.90
2018-01-25T19:17:01.708Z,10.00
2018-01-25T19:19:29.946Z,10.00
2018-01-25T19:21:58.276Z,10.00
2018-01-25T19:24:26.504Z,10.00
2018-01-25T19:26:54.756Z,10.00
2018-01-25T19:29:23.780Z,10.00
2018-01-25T19:31:52.045Z,10.00
2018-01-25T19:34:20.308Z,10.10
2018-01-25T19:36:48.540Z,10.10
2018-01-25T19:39:16.801Z,10.00
2018-01-25T19:41:45.056Z,10.00
2018-01-25T19:44:13.303Z,10.00
2018-01-25T19:46:41.565Z,10.00
2018-01-25T19:49:10.593Z,10.00
2018-01-25T19:51:38.857Z,10.00
2018-01-25T19:54:07.111Z,10.00
2018-01-25T19:56:35.386Z,10.00
2018-01-25T19:59:04.376Z,10.00
2018-01-25T20:01:33.443Z,9.90
2018-01-25T20:04:01.780Z,9.90
2018-01-25T20:06:30.036Z,9.90
2018-01-25T20:08:59.321Z,9.80
2018-01-25T20:11:28.326Z,9.90
2018-01-25T20:13:57.414Z,9.80
2018-01-25T20:16:26.424Z,9.80
2018-01-25T20:18:54.738Z,9.70
2018-01-25T20:21:22.944Z,9.70
2018-01-25T20:23:51.955Z,9.70
2018-01-25T20:26:20.237Z,9.70
2018-01-25T20:28:48.469Z,9.70
2018-01-25T20:31:16.739Z,9.70
2018-01-25T20:33:44.965Z,9.70
2018-01-25T20:36:13.201Z,9.70
2018-01-25T20:38:41.500Z,9.70
2018-01-25T20:41:09.728Z,9.70
2018-01-25T20:43:37.970Z,9.60
2018-01-25T20:46:06.244Z,9.60
2018-01-25T20:48:34.496Z,9.60
2018-01-25T20:51:02.747Z,9.60
2018-01-25T20:53:31.014Z,9.60
2018-01-25T20:55:59.252Z,9.50
2018-01-25T20:58:27.525Z,9.50
2018-01-25T21:00:56.515Z,9.50
2018-01-25T21:03:24.786Z,9.50
2018-01-25T21:05:53.025Z,9.50
2018-01-25T21:08:21.281Z,9.50
2018-01-25T21:10:49.508Z,9.50
2018-01-25T21:13:17.744Z,9.50
2018-01-25T21:15:47.508Z,9.50
2018-01-25T21:18:15.740Z,9.50
2018-01-25T21:20:44.766Z,9.40
2018-01-25T21:23:13.052Z,9.40
2018-01-25T21:25:41.371Z,9.40
2018-01-25T21:28:09.611Z,9.40
2018-01-25T21:30:37.852Z,9.30
2018-01-25T21:33:06.843Z,9.20
2018-01-25T21:35:35.856Z,9.20
2018-01-25T21:38:04.112Z,9.20
2018-01-25T21:40:32.348Z,9.20
2018-01-25T21:43:01.397Z,9.00
2018-01-25T21:45:30.387Z,9.00
2018-01-25T21:47:58.627Z,9.00
2018-01-25T21:50:27.627Z,8.90
2018-01-25T21:52:56.655Z,8.90
2018-01-25T21:55:24.876Z,8.90
2018-01-25T21:57:53.112Z,9.00
2018-01-25T22:00:21.384Z,8.90
2018-01-25T22:02:49.652Z,8.90
2018-01-25T22:05:17.929Z,8.90
2018-01-25T22:07:46.176Z,8.80
2018-01-25T22:10:15.191Z,8.80
2018-01-25T22:12:43.534Z,8.70
2018-01-25T22:15:11.733Z,8.70
2018-01-25T22:17:40.725Z,8.70
2018-01-25T22:20:08.987Z,8.70
2018-01-25T22:22:38.016Z,8.60
2018-01-25T22:25:06.280Z,8.60
2018-01-25T22:27:34.537Z,8.60
2018-01-25T22:30:03.666Z,8.60
2018-01-25T22:32:31.908Z,8.50
2018-01-25T22:35:00.910Z,8.60
2018-01-25T22:37:29.163Z,8.50
2018-01-25T22:39:57.410Z,8.50
2018-01-25T22:42:25.658Z,8.50
2018-01-25T22:44:53.920Z,8.60
2018-01-25T22:47:22.187Z,8.60
2018-01-25T22:49:50.431Z,8.70
2018-01-25T22:52:20.187Z,8.60
2018-01-25T22:54:48.412Z,8.70
2018-01-25T22:57:16.685Z,8.70
2018-01-25T22:59:44.931Z,8.70
2018-01-25T23:02:13.187Z,8.60
2018-01-25T23:04:41.451Z,8.60
2018-01-25T23:07:09.696Z,8.60
2018-01-25T23:09:38.722Z,8.60
2018-01-25T23:12:06.987Z,8.60
2018-01-25T23:14:35.249Z,8.60
2018-01-25T23:17:04.256Z,8.60
2018-01-25T23:19:32.517Z,8.60
2018-01-25T23:22:01.535Z,8.60
2018-01-25T23:24:29.788Z,8.60
2018-01-25T23:26:58.056Z,8.70
2018-01-25T23:29:27.073Z,8.60
2018-01-25T23:31:55.329Z,8.60
2018-01-25T23:34:25.080Z,8.50
2018-01-25T23:36:53.355Z,8.50
2018-01-25T23:39:21.617Z,8.50
2018-01-25T23:41:49.960Z,8.60
2018-01-25T23:44:18.965Z,8.60
2018-01-25T23:46:47.249Z,8.60
2018-01-25T23:49:15.487Z,8.60
2018-01-25T23:51:44.002Z,8.60
2018-01-25T23:54:12.248Z,8.60
2018-01-25T23:56:40.523Z,8.50
2018-01-25T23:59:08.745Z,8.50
